Flight Track Log - Related Links

Times and Time Zones

All times are in EDT time to prevent confusion due to time zone crossing. See the GJS3697 flight status page for this flight to view local times or setup timezone preferences in your user account.

Time Position Orientation Groundspeed Altitude Reporting Facility
EDT Latitude Longitude Course Direction KTS MPH feet Rate Location/Type
Mon 07:02:10 PM 30.0092 -90.2431 North 157 181 700  Level Houston Center
Mon 07:02:47 PM 30.0361 -90.2347 15° North 162 186 1,900 1,941 Climbing Houston Center
Mon 07:03:18 PM 30.0608 -90.2289 12° North 188 216 2,900 2,291 Climbing Houston Center
Mon 07:03:42 PM 30.0878 -90.2206 15° North 214 246 4,000 1,839 Climbing Houston Center
Mon 07:04:20 PM 30.1208 -90.2092 17° North 212 244 4,800 2,220 Climbing Houston Center
Mon 07:05:22 PM 30.1906 -90.2089 360° North 247 284 7,700 2,903 Climbing Houston Center
Mon 07:06:24 PM 30.2483 -90.2922 309° West 267 307 10,800 2,274 Climbing Houston Center
Mon 07:07:00 PM 30.5377 -90.4495 North  Level FlightAware Approximate
Mon 07:07:26 PM 30.2958 -90.3706 305° West 288 331 12,400  Level Houston Center
Mon 07:08:28 PM 30.3669 -90.4461 317° Northwest 358 412 13,500 1,306 Climbing Houston Center
Mon 07:09:30 PM 30.4697 -90.4831 343° North 384 442 15,100 1,610 Climbing Houston Center
Mon 07:10:31 PM 30.5703 -90.5300 338° Northwest 387 445 16,800 1,317 Climbing Houston Center
Mon 07:11:33 PM 30.6733 -90.5725 340° North 390 449 17,800 1,161 Climbing Houston Center
Mon 07:12:35 PM 30.7858 -90.5897 353° North 414 476 19,200 1,258 Climbing Houston Center
Mon 07:13:37 PM 30.9258 -90.5725 North 418 481 20,400 1,161 Climbing Houston Center
Mon 07:14:39 PM 31.0467 -90.5581 North 431 496 21,600 1,113 Climbing Houston Center
Mon 07:15:41 PM 31.1683 -90.5444 North 436 502 22,700 1,065 Climbing Houston Center
Mon 07:16:43 PM 31.2908 -90.5300 North 439 505 23,800 1,073 Climbing Houston Center
Mon 07:17:44 PM 31.4147 -90.5161 North 443 510 24,900 1,024 Climbing Houston Center
Mon 07:18:46 PM 31.5394 -90.5022 North 449 517 25,900 968 Climbing Houston Center
Mon 07:19:48 PM 31.6636 -90.4883 North 448 516 26,900 1,016 Climbing Houston Center
Mon 07:20:50 PM 31.8136 -90.4703 North 450 518 28,000 919 Climbing Houston Center
Mon 07:21:52 PM 31.9394 -90.4569 North 453 521 28,800 769 Climbing Houston Center
Mon 07:22:08 PM 31.9622 -90.4528 North 443 510 29,000 789 Climbing Memphis Center
Mon 07:23:08 PM 32.0917 -90.4383 North 448 516 29,800 850 Climbing Memphis Center
Mon 07:24:08 PM 32.2167 -90.4236 North 448 516 30,700 950 Climbing Memphis Center
Mon 07:25:08 PM 32.3419 -90.4089 North 448 516 31,700 1,000 Climbing Memphis Center
Mon 07:26:08 PM 32.4653 -90.3967 North 443 510 32,700 850 Climbing Memphis Center
Mon 07:27:08 PM 32.5883 -90.3819 North 443 510 33,400 700 Climbing Memphis Center
Mon 07:28:08 PM 32.7117 -90.3672 North 443 510 34,100 750 Climbing Memphis Center
Mon 07:29:08 PM 32.8347 -90.3522 North 443 510 34,900 800 Climbing Memphis Center
Mon 07:30:08 PM 32.9558 -90.3400 North 443 510 35,700 750 Climbing Memphis Center
Mon 07:31:08 PM 33.0769 -90.3250 North 443 510 36,400 600 Climbing Memphis Center
Mon 07:32:08 PM 33.1958 -90.3100 North 443 510 36,900 298 Climbing Memphis Center
Mon 07:33:09 PM 33.3192 -90.2950 North 438 504 37,000 50 Climbing Memphis Center
Mon 07:34:08 PM 33.4422 -90.2825 North 438 504 37,000  Level Memphis Center
Mon 07:35:08 PM 33.5653 -90.2600 North 443 510 37,000  Level Memphis Center
Mon 07:36:09 PM 33.6883 -90.2372 North 443 510 37,000  Level Memphis Center
Mon 07:37:08 PM 33.8094 -90.2147 North 443 510 37,000  Level Memphis Center
Mon 07:38:08 PM 33.9431 -90.1894 North 443 510 37,000  Level Memphis Center
Mon 07:39:08 PM 34.0661 -90.1667 North 448 516 37,000  Level Memphis Center
Mon 07:40:08 PM 34.1872 -90.1436 North 448 516 37,000 -200 Level Memphis Center
Mon 07:41:08 PM 34.3081 -90.1208 North 448 516 36,600 -500 Descending Memphis Center
Mon 07:42:08 PM 34.4311 -90.0978 North 448 516 36,000 -300 Descending Memphis Center
Mon 07:43:08 PM 34.5522 -90.0772 North 441 507 36,000  Level Memphis Center
Mon 07:44:08 PM 34.6586 -90.0567 North 441 507 36,000  Level Memphis Center
Mon 07:45:08 PM 34.7794 -90.0361 North 435 501 36,000  Level Memphis Center
Mon 07:46:08 PM 34.9006 -90.0128 North 435 501 36,000  Level Memphis Center
Mon 07:47:08 PM 35.0319 -89.9869 North 435 501 36,000  Level Memphis Center
Mon 07:48:08 PM 35.1508 -89.9964 356° North 425 489 36,000  Level Memphis Center
Mon 07:49:08 PM 35.2697 -90.0061 356° North 420 483 36,000  Level Memphis Center
Mon 07:50:08 PM 35.3864 -90.0158 356° North 420 483 36,000  Level Memphis Center
Mon 07:51:08 PM 35.5033 -90.0281 355° North 425 489 36,000  Level Memphis Center
Mon 07:52:08 PM 35.6244 -90.0378 356° North 425 489 36,000  Level Memphis Center
Mon 07:53:08 PM 35.7225 -90.0528 353° North 411 473 36,000  Level Memphis Center
Mon 07:54:08 PM 35.8350 -90.0600 357° North 405 466 36,000 -300 Level Memphis Center
Mon 07:55:08 PM 35.9539 -90.0725 355° North 410 472 35,400 -950 Descending Memphis Center
Mon 07:56:08 PM 36.0728 -90.0847 355° North 423 487 34,100 -700 Descending Memphis Center
Mon 07:57:08 PM 36.1939 -90.0972 355° North 428 493 34,000 -50 Descending Memphis Center
Mon 07:58:08 PM 36.3189 -90.1072 356° North 434 499 34,000  Level Memphis Center
Mon 07:59:08 PM 36.4522 -90.1350 350° North 440 506 34,000  Level Memphis Center
Mon 08:00:08 PM 36.5692 -90.1786 343° North 445 512 34,000  Level Memphis Center
Mon 08:01:08 PM 36.6900 -90.2225 344° North 445 512 34,000  Level Memphis Center
Mon 08:02:08 PM 36.8069 -90.2636 344° North 440 506 34,000  Level Memphis Center
Mon 08:03:46 PM 36.9897 -90.3269 345° North 436 502 34,000  Level Kansas City Center
Mon 08:04:48 PM 37.1056 -90.3706 343° North 434 499 34,000  Level Kansas City Center
Mon 08:05:50 PM 37.2214 -90.4122 344° North 432 497 34,000  Level Kansas City Center
Mon 08:06:52 PM 37.3400 -90.4575 343° North 432 497 34,000  Level Kansas City Center
Mon 08:07:54 PM 37.4553 -90.4994 344° North 431 496 34,000  Level Kansas City Center
Mon 08:08:55 PM 37.5706 -90.5431 343° North 431 496 34,000  Level Kansas City Center
Mon 08:09:57 PM 37.7083 -90.5919 344° North 429 494 34,000  Level Kansas City Center
Mon 08:10:59 PM 37.8244 -90.6372 343° North 434 499 34,000  Level Kansas City Center
Mon 08:12:01 PM 37.9392 -90.6847 342° North 434 499 34,000  Level Kansas City Center
Mon 08:13:03 PM 38.0147 -90.8083 308° West 453 521 34,000  Level Kansas City Center
Mon 08:14:05 PM 38.0306 -90.9703 277° West 467 537 34,000  Level Kansas City Center
Mon 08:15:06 PM 38.0486 -91.1506 277° West 460 529 34,000  Level Kansas City Center
Mon 08:16:08 PM 38.0683 -91.3031 279° West 444 511 34,000 242 Level Kansas City Center
Mon 08:17:10 PM 38.1428 -91.4181 309° West 438 504 34,500 484 Climbing Kansas City Center
Mon 08:18:12 PM 38.2503 -91.4578 344° North 420 483 35,000 242 Climbing Kansas City Center
Mon 08:19:14 PM 38.3525 -91.4103 20° North 404 465 35,000  Level Kansas City Center
Mon 08:20:16 PM 38.4392 -91.2956 46° Northeast 412 474 35,000  Level Kansas City Center
Mon 08:21:17 PM 38.5189 -91.1919 45° Northeast 410 472 35,000  Level Kansas City Center
Mon 08:22:19 PM 38.6142 -91.1164 32° Northeast 405 466 35,000  Level Kansas City Center
Mon 08:23:21 PM 38.7153 -91.0578 24° Northeast 399 459 35,000  Level Kansas City Center
Mon 08:24:23 PM 38.8178 -90.9994 24° Northeast 399 459 35,000  Level Kansas City Center
Mon 08:25:25 PM 38.9211 -90.9400 24° Northeast 403 464 35,000  Level Kansas City Center
Mon 08:26:27 PM 39.0442 -90.8664 25° Northeast 403 464 35,000 -341 Level Kansas City Center
Mon 08:27:28 PM 39.1483 -90.8061 24° Northeast 406 467 34,300 -683 Descending Kansas City Center
Mon 08:28:30 PM 39.2564 -90.7431 24° Northeast 418 481 33,600 -629 Descending Kansas City Center
Mon 08:29:32 PM 39.3647 -90.6772 25° Northeast 426 490 33,000 -290 Descending Kansas City Center
Mon 08:30:34 PM 39.4728 -90.6142 24° Northeast 425 489 33,000  Level Kansas City Center
Mon 08:31:36 PM 39.5764 -90.5544 24° Northeast 411 473 33,000  Level Kansas City Center
Mon 08:32:38 PM 39.6769 -90.4922 25° Northeast 402 463 33,000  Level Kansas City Center
Mon 08:33:40 PM 39.7956 -90.4217 25° Northeast 399 459 33,000  Level Kansas City Center
Mon 08:34:41 PM 39.8983 -90.3594 25° Northeast 403 464 33,000  Level Kansas City Center
Mon 08:35:13 PM 39.9397 -90.3361 23° Northeast 407 468 33,000  Level Chicago Center
Mon 08:36:16 PM 40.0625 -90.2611 25° Northeast 408 470 33,000  Level Chicago Center
Mon 08:37:18 PM 40.1650 -90.2000 24° Northeast 405 466 33,000  Level Chicago Center
Mon 08:38:20 PM 40.2661 -90.1372 25° Northeast 403 464 33,000 -484 Level Chicago Center
Mon 08:39:22 PM 40.3656 -90.0775 25° Northeast 397 457 32,000 -1,016 Descending Chicago Center
Mon 08:40:24 PM 40.4544 -90.0233 25° Northeast 364 419 30,900 -1,694 Descending Chicago Center
Mon 08:41:26 PM 40.5631 -89.9514 27° Northeast 361 415 28,500 -2,032 Descending Chicago Center
Mon 08:42:28 PM 40.6681 -89.8942 22° Northeast 396 456 26,700 -1,597 Descending Chicago Center
Mon 08:43:30 PM 40.7636 -89.8339 26° Northeast 389 448 25,200 -1,258 Descending Chicago Center
Mon 08:44:32 PM 40.8628 -89.7739 25° Northeast 389 448 24,100 -581 Descending Chicago Center
Mon 08:45:34 PM 40.9622 -89.7125 25° Northeast 395 455 24,000 -48 Descending Chicago Center
Mon 08:46:37 PM 41.0758 -89.6422 25° Northeast 405 466 24,000 -484 Level Chicago Center
Mon 08:47:38 PM 41.1700 -89.5644 32° Northeast 405 466 23,000 -1,210 Descending Chicago Center
Mon 08:48:41 PM 41.2269 -89.4269 61° Northeast 429 494 21,500 -1,536 Descending Chicago Center
Mon 08:49:43 PM 41.2828 -89.2911 61° Northeast 421 484 19,800 -1,839 Descending Chicago Center
Mon 08:50:45 PM 41.3372 -89.1503 63° Northeast 408 470 17,700 -2,032 Descending Chicago Center
Mon 08:51:47 PM 41.3867 -89.0258 62° Northeast 387 445 15,600 -2,081 Descending Chicago Center
Mon 08:52:49 PM 41.4433 -88.8833 62° Northeast 368 423 13,400 -1,935 Descending Chicago Center
Mon 08:53:51 PM 41.4897 -88.7653 62° Northeast 362 417 11,600 -1,161 Descending Chicago Center
Mon 08:54:53 PM 41.5306 -88.6619 62° Northeast 323 372 11,000 -290 Descending Chicago Center
Mon 08:55:55 PM 41.5708 -88.5650 61° Northeast 304 350 11,000 -484 Level Chicago Center
Mon 08:56:57 PM 41.6222 -88.4853 49° Northeast 289 333 10,000 -1,113 Descending Chicago Center
Mon 08:57:59 PM 41.6725 -88.4069 49° Northeast 280 322 8,700 -1,403 Descending Chicago Center
Mon 08:59:01 PM 41.7417 -88.3650 24° Northeast 245 282 7,100 -823 Descending Chicago Center
Mon 09:00:03 PM 41.8078 -88.3586 North 241 277 7,000 -677 Descending Chicago Center
Mon 09:01:05 PM 41.8753 -88.3425 10° North 247 284 5,700 -968 Descending Chicago Center
Mon 09:02:07 PM 41.9392 -88.3300 North 235 270 5,000 -435 Descending Chicago Center
Mon 09:03:09 PM 41.9714 -88.2703 54° Northeast 225 259 4,800 -336 Descending Chicago Center
Mon 09:04:12 PM 41.9706 -88.1917 91° East 216 249 4,300 -720 Descending Chicago Center
Mon 09:05:14 PM 41.9667 -88.1000 93° East 201 231 3,300 -968 Descending Chicago TRACON

Login

Don't have an account? Register now (free) for customized features, flight alerts, and more!